sensor_id;sensor_type;location;lat;lon;timestamp;pressure;altitude;pressure_sealevel;temperature;humidity
20955;BME280;10636;19.390;-99.256;2023-12-20T00:02:05;77828.91;;;21.93;27.01
20955;BME280;10636;19.390;-99.256;2023-12-20T00:04:34;77838.13;;;21.90;27.78
20955;BME280;10636;19.390;-99.256;2023-12-20T00:07:03;77836.75;;;21.89;27.60
20955;BME280;10636;19.390;-99.256;2023-12-20T00:09:32;77843.28;;;21.86;27.47
20955;BME280;10636;19.390;-99.256;2023-12-20T00:12:03;77837.94;;;21.86;27.44
20955;BME280;10636;19.390;-99.256;2023-12-20T00:14:32;77839.13;;;21.83;26.81
20955;BME280;10636;19.390;-99.256;2023-12-20T00:17:01;77841.72;;;21.81;26.94
20955;BME280;10636;19.390;-99.256;2023-12-20T00:19:29;77841.72;;;21.81;26.82
20955;BME280;10636;19.390;-99.256;2023-12-20T00:21:58;77844.31;;;21.79;27.10
20955;BME280;10636;19.390;-99.256;2023-12-20T00:24:27;77843.63;;;21.78;27.74
20955;BME280;10636;19.390;-99.256;2023-12-20T00:26:56;77852.91;;;21.77;27.90
20955;BME280;10636;19.390;-99.256;2023-12-20T00:29:27;77848.09;;;21.74;27.49
20955;BME280;10636;19.390;-99.256;2023-12-20T00:31:55;77848.66;;;21.72;27.91
20955;BME280;10636;19.390;-99.256;2023-12-20T00:34:24;77859.94;;;21.71;27.72
20955;BME280;10636;19.390;-99.256;2023-12-20T00:36:53;77856.59;;;21.70;27.72
20955;BME280;10636;19.390;-99.256;2023-12-20T00:39:22;77865.19;;;21.69;27.92
20955;BME280;10636;19.390;-99.256;2023-12-20T00:41:50;77870.53;;;21.69;27.72
20955;BME280;10636;19.390;-99.256;2023-12-20T00:44:19;77861.16;;;21.67;28.51
20955;BME280;10636;19.390;-99.256;2023-12-20T00:46:50;77873.00;;;21.64;27.94
20955;BME280;10636;19.390;-99.256;2023-12-20T00:49:18;77877.56;;;21.62;28.30
20955;BME280;10636;19.390;-99.256;2023-12-20T00:51:47;77883.50;;;21.60;28.40
20955;BME280;10636;19.390;-99.256;2023-12-20T00:54:16;77878.69;;;21.57;28.25
20955;BME280;10636;19.390;-99.256;2023-12-20T00:56:45;77889.94;;;21.55;28.37
20955;BME280;10636;19.390;-99.256;2023-12-20T00:59:14;77896.63;;;21.56;28.92
20955;BME280;10636;19.390;-99.256;2023-12-20T01:01:43;77902.56;;;21.55;29.06
20955;BME280;10636;19.390;-99.256;2023-12-20T01:04:14;77907.22;;;21.54;28.93
20955;BME280;10636;19.390;-99.256;2023-12-20T01:06:43;77910.50;;;21.53;28.33
20955;BME280;10636;19.390;-99.256;2023-12-20T01:09:11;77919.09;;;21.51;28.57
20955;BME280;10636;19.390;-99.256;2023-12-20T01:11:41;77914.94;;;21.48;28.00
20955;BME280;10636;19.390;-99.256;2023-12-20T01:14:09;77922.25;;;21.48;28.01
20955;BME280;10636;19.390;-99.256;2023-12-20T01:16:38;77928.09;;;21.44;28.72
20955;BME280;10636;19.390;-99.256;2023-12-20T01:19:07;77925.63;;;21.48;28.50
20955;BME280;10636;19.390;-99.256;2023-12-20T01:21:37;77936.50;;;21.52;28.28
20955;BME280;10636;19.390;-99.256;2023-12-20T01:24:06;77931.16;;;21.52;29.17
20955;BME280;10636;19.390;-99.256;2023-12-20T01:26:35;77941.22;;;21.54;29.49
20955;BME280;10636;19.390;-99.256;2023-12-20T01:29:03;77946.66;;;21.56;29.32
20955;BME280;10636;19.390;-99.256;2023-12-20T01:31:32;77952.00;;;21.56;29.09
20955;BME280;10636;19.390;-99.256;2023-12-20T01:34:01;77951.31;;;21.55;29.22
20955;BME280;10636;19.390;-99.256;2023-12-20T01:36:29;77951.91;;;21.54;29.58
20955;BME280;10636;19.390;-99.256;2023-12-20T01:39:00;77955.25;;;21.54;29.75
20955;BME280;10636;19.390;-99.256;2023-12-20T01:41:29;77954.56;;;21.54;29.65
20955;BME280;10636;19.390;-99.256;2023-12-20T01:43:57;77958.63;;;21.55;29.40
20955;BME280;10636;19.390;-99.256;2023-12-20T01:46:27;77958.72;;;21.57;29.69
20955;BME280;10636;19.390;-99.256;2023-12-20T01:48:55;77965.34;;;21.56;29.81
20955;BME280;10636;19.390;-99.256;2023-12-20T01:51:25;77963.34;;;21.56;29.41
20955;BME280;10636;19.390;-99.256;2023-12-20T01:54:02;77972.66;;;21.55;29.42
20955;BME280;10636;19.390;-99.256;2023-12-20T01:56:32;77983.31;;;21.55;29.72
20955;BME280;10636;19.390;-99.256;2023-12-20T01:59:02;77996.66;;;21.55;29.62
20955;BME280;10636;19.390;-99.256;2023-12-20T02:01:31;77996.66;;;21.55;29.64
20955;BME280;10636;19.390;-99.256;2023-12-20T02:04:00;77998.03;;;21.56;30.30
20955;BME280;10636;19.390;-99.256;2023-12-20T02:06:30;78001.91;;;21.53;30.27
20955;BME280;10636;19.390;-99.256;2023-12-20T02:09:01;78006.06;;;21.56;30.41
20955;BME280;10636;19.390;-99.256;2023-12-20T02:11:34;78011.38;;;21.56;30.39
20955;BME280;10636;19.390;-99.256;2023-12-20T02:14:03;78012.78;;;21.57;30.53
20955;BME280;10636;19.390;-99.256;2023-12-20T02:16:32;78016.25;;;21.60;30.64
20955;BME280;10636;19.390;-99.256;2023-12-20T02:19:01;78016.94;;;21.60;30.52
20955;BME280;10636;19.390;-99.256;2023-12-20T02:21:34;78018.31;;;21.61;31.05
20955;BME280;10636;19.390;-99.256;2023-12-20T02:24:03;78014.25;;;21.60;30.25
20955;BME280;10636;19.390;-99.256;2023-12-20T02:26:33;78018.31;;;21.61;30.81
20955;BME280;10636;19.390;-99.256;2023-12-20T02:29:02;78028.97;;;21.61;30.48
20955;BME280;10636;19.390;-99.256;2023-12-20T02:31:30;78028.91;;;21.59;30.57
20955;BME280;10636;19.390;-99.256;2023-12-20T02:34:01;78026.81;;;21.58;30.90
20955;BME280;10636;19.390;-99.256;2023-12-20T02:36:30;78026.13;;;21.57;30.79
20955;BME280;10636;19.390;-99.256;2023-12-20T02:39:00;78042.25;;;21.59;30.58
20955;BME280;10636;19.390;-99.256;2023-12-20T02:41:29;78036.81;;;21.57;30.30
20955;BME280;10636;19.390;-99.256;2023-12-20T02:44:01;78036.69;;;21.55;30.33
20955;BME280;10636;19.390;-99.256;2023-12-20T02:46:30;78029.97;;;21.54;31.12
20955;BME280;10636;19.390;-99.256;2023-12-20T02:48:58;78039.38;;;21.55;30.37
20955;BME280;10636;19.390;-99.256;2023-12-20T02:51:30;78037.97;;;21.54;30.71
20955;BME280;10636;19.390;-99.256;2023-12-20T02:54:01;78035.31;;;21.54;30.74
20955;BME280;10636;19.390;-99.256;2023-12-20T02:56:29;78045.31;;;21.54;31.09
20955;BME280;10636;19.390;-99.256;2023-12-20T02:58:58;78046.69;;;21.55;30.92
20955;BME280;10636;19.390;-99.256;2023-12-20T03:01:27;78063.38;;;21.55;30.93
20955;BME280;10636;19.390;-99.256;2023-12-20T03:03:56;78050.63;;;21.54;30.37
20955;BME280;10636;19.390;-99.256;2023-12-20T03:06:25;78052.63;;;21.53;31.17
20955;BME280;10636;19.390;-99.256;2023-12-20T03:08:53;78060.63;;;21.53;30.75
20955;BME280;10636;19.390;-99.256;2023-12-20T03:11:26;78051.25;;;21.52;30.71
20955;BME280;10636;19.390;-99.256;2023-12-20T03:13:55;78053.91;;;21.52;31.15
20955;BME280;10636;19.390;-99.256;2023-12-20T03:16:24;78063.91;;;21.52;31.34
20955;BME280;10636;19.390;-99.256;2023-12-20T03:18:53;78063.19;;;21.51;31.19
20955;BME280;10636;19.390;-99.256;2023-12-20T03:21:22;78065.16;;;21.51;31.66
20955;BME280;10636;19.390;-99.256;2023-12-20T03:23:51;78059.25;;;21.52;31.62
20955;BME280;10636;19.390;-99.256;2023-12-20T03:26:20;78062.00;;;21.54;31.42
20955;BME280;10636;19.390;-99.256;2023-12-20T03:28:50;78056.66;;;21.54;31.43
20955;BME280;10636;19.390;-99.256;2023-12-20T03:31:18;78053.91;;;21.52;31.62
20955;BME280;10636;19.390;-99.256;2023-12-20T03:33:48;78063.19;;;21.51;31.69
20955;BME280;10636;19.390;-99.256;2023-12-20T03:36:17;78061.09;;;21.50;31.65
20955;BME280;10636;19.390;-99.256;2023-12-20T03:38:46;78064.38;;;21.48;32.12
20955;BME280;10636;19.390;-99.256;2023-12-20T03:41:15;78060.31;;;21.47;32.22
20955;BME280;10636;19.390;-99.256;2023-12-20T03:43:44;78061.63;;;21.46;31.88
20955;BME280;10636;19.390;-99.256;2023-12-20T03:46:14;78065.53;;;21.45;31.61
20955;BME280;10636;19.390;-99.256;2023-12-20T03:48:43;78063.47;;;21.44;32.01
20955;BME280;10636;19.390;-99.256;2023-12-20T03:51:11;78070.78;;;21.43;31.65
20955;BME280;10636;19.390;-99.256;2023-12-20T03:53:40;78074.16;;;21.44;32.17
20955;BME280;10636;19.390;-99.256;2023-12-20T03:56:09;78070.78;;;21.43;32.21
20955;BME280;10636;19.390;-99.256;2023-12-20T03:58:37;78076.72;;;21.42;32.04
20955;BME280;10636;19.390;-99.256;2023-12-20T04:01:14;78083.91;;;21.39;31.77
20955;BME280;10636;19.390;-99.256;2023-12-20T04:03:43;78083.91;;;21.39;32.68
20955;BME280;10636;19.390;-99.256;2023-12-20T04:06:17;78094.50;;;21.37;32.26
20955;BME280;10636;19.390;-99.256;2023-12-20T04:08:46;78098.94;;;21.32;32.31
20955;BME280;10636;19.390;-99.256;2023-12-20T04:11:15;78106.25;;;21.32;32.29
20955;BME280;10636;19.390;-99.256;2023-12-20T04:13:44;78096.84;;;21.31;32.14
20955;BME280;10636;19.390;-99.256;2023-12-20T04:16:15;78098.34;;;21.34;32.21
20955;BME280;10636;19.390;-99.256;2023-12-20T04:18:43;78103.66;;;21.34;32.71
20955;BME280;10636;19.390;-99.256;2023-12-20T04:21:12;78104.34;;;21.34;32.39
20955;BME280;10636;19.390;-99.256;2023-12-20T04:23:41;78099.03;;;21.34;32.65
20955;BME280;10636;19.390;-99.256;2023-12-20T04:26:10;78094.97;;;21.33;32.47
20955;BME280;10636;19.390;-99.256;2023-12-20T04:28:39;78102.38;;;21.35;33.09
20955;BME280;10636;19.390;-99.256;2023-12-20T04:31:08;78099.72;;;21.35;33.02
20955;BME280;10636;19.390;-99.256;2023-12-20T04:33:39;78097.66;;;21.33;33.21
20955;BME280;10636;19.390;-99.256;2023-12-20T04:36:08;78102.28;;;21.33;33.15
20955;BME280;10636;19.390;-99.256;2023-12-20T04:38:37;78099.63;;;21.33;33.17
20955;BME280;10636;19.390;-99.256;2023-12-20T04:41:06;78100.91;;;21.32;33.40
20955;BME280;10636;19.390;-99.256;2023-12-20T04:43:42;78098.13;;;21.30;33.36
20955;BME280;10636;19.390;-99.256;2023-12-20T04:46:11;78096.03;;;21.28;33.44
20955;BME280;10636;19.390;-99.256;2023-12-20T04:48:41;78095.34;;;21.28;33.72
20955;BME280;10636;19.390;-99.256;2023-12-20T04:51:10;78088.63;;;21.27;33.18
20955;BME280;10636;19.390;-99.256;2023-12-20T04:53:39;78085.25;;;21.26;33.18
20955;BME280;10636;19.390;-99.256;2023-12-20T04:56:07;78085.16;;;21.24;33.72
20955;BME280;10636;19.390;-99.256;2023-12-20T04:58:36;78086.34;;;21.21;33.52
20955;BME280;10636;19.390;-99.256;2023-12-20T05:01:06;78072.88;;;21.19;33.49
20955;BME280;10636;19.390;-99.256;2023-12-20T05:03:35;78080.19;;;21.19;33.57
20955;BME280;10636;19.390;-99.256;2023-12-20T05:06:05;78087.41;;;21.16;33.67
20955;BME280;10636;19.390;-99.256;2023-12-20T05:08:34;78086.59;;;21.13;33.94
20955;BME280;10636;19.390;-99.256;2023-12-20T05:11:03;78077.91;;;21.13;33.53
20955;BME280;10636;19.390;-99.256;2023-12-20T05:13:33;78081.25;;;21.13;33.50
20955;BME280;10636;19.390;-99.256;2023-12-20T05:16:02;78077.13;;;21.10;33.50
20955;BME280;10636;19.390;-99.256;2023-12-20T05:18:31;78075.75;;;21.09;34.23
20955;BME280;10636;19.390;-99.256;2023-12-20T05:20:59;78075.03;;;21.09;34.02
20955;BME280;10636;19.390;-99.256;2023-12-20T05:23:30;78075.75;;;21.09;34.06
20955;BME280;10636;19.390;-99.256;2023-12-20T05:25:59;78076.91;;;21.06;33.76
20955;BME280;10636;19.390;-99.256;2023-12-20T05:28:31;78081.56;;;21.06;33.60
20955;BME280;10636;19.390;-99.256;2023-12-20T05:30:59;78069.50;;;21.05;33.80
20955;BME280;10636;19.390;-99.256;2023-12-20T05:33:28;78076.81;;;21.04;34.20
20955;BME280;10636;19.390;-99.256;2023-12-20T05:35:57;78082.72;;;21.03;34.27
20955;BME280;10636;19.390;-99.256;2023-12-20T05:38:26;78076.00;;;21.02;33.76
20955;BME280;10636;19.390;-99.256;2023-12-20T05:40:56;78079.97;;;21.01;33.91
20955;BME280;10636;19.390;-99.256;2023-12-20T05:43:25;78073.94;;;21.00;34.05
20955;BME280;10636;19.390;-99.256;2023-12-20T05:45:54;78075.31;;;21.01;33.81
20955;BME280;10636;19.390;-99.256;2023-12-20T05:48:23;78081.34;;;21.02;34.06
20955;BME280;10636;19.390;-99.256;2023-12-20T05:50:51;78075.31;;;21.01;34.02
20955;BME280;10636;19.390;-99.256;2023-12-20T05:53:20;78073.34;;;21.02;34.36
20955;BME280;10636;19.390;-99.256;2023-12-20T05:55:49;78069.88;;;20.99;34.00
20955;BME280;10636;19.390;-99.256;2023-12-20T05:58:20;78066.63;;;21.01;34.36
20955;BME280;10636;19.390;-99.256;2023-12-20T06:00:51;78055.16;;;20.98;34.00
20955;BME280;10636;19.390;-99.256;2023-12-20T06:03:24;78057.72;;;20.96;34.33
20955;BME280;10636;19.390;-99.256;2023-12-20T06:05:59;78059.09;;;20.97;33.85
20955;BME280;10636;19.390;-99.256;2023-12-20T06:08:32;78066.41;;;20.97;33.86
20955;BME280;10636;19.390;-99.256;2023-12-20T06:11:01;78067.00;;;20.95;33.90
20955;BME280;10636;19.390;-99.256;2023-12-20T06:13:32;78062.97;;;20.94;34.25
20955;BME280;10636;19.390;-99.256;2023-12-20T06:16:03;78064.22;;;20.93;34.34
20955;BME280;10636;19.390;-99.256;2023-12-20T06:18:31;78066.78;;;20.91;33.96
20955;BME280;10636;19.390;-99.256;2023-12-20T06:21:00;78058.00;;;20.88;34.50
20955;BME280;10636;19.390;-99.256;2023-12-20T06:23:29;78052.69;;;20.88;34.47
20955;BME280;10636;19.390;-99.256;2023-12-20T06:25:57;78036.00;;;20.88;33.74
20955;BME280;10636;19.390;-99.256;2023-12-20T06:28:26;78041.31;;;20.88;34.41
20955;BME280;10636;19.390;-99.256;2023-12-20T06:30:58;78036.00;;;20.88;34.21
20955;BME280;10636;19.390;-99.256;2023-12-20T06:33:27;78036.00;;;20.88;34.17
20955;BME280;10636;19.390;-99.256;2023-12-20T06:35:57;78032.59;;;20.87;34.14
20955;BME280;10636;19.390;-99.256;2023-12-20T06:38:27;78031.81;;;20.85;33.94
20955;BME280;10636;19.390;-99.256;2023-12-20T06:40:56;78035.88;;;20.86;34.14
20955;BME280;10636;19.390;-99.256;2023-12-20T06:43:26;78033.69;;;20.82;34.04
20955;BME280;10636;19.390;-99.256;2023-12-20T06:45:55;78033.00;;;20.82;34.34
20955;BME280;10636;19.390;-99.256;2023-12-20T06:48:25;78031.63;;;20.81;34.12
20955;BME280;10636;19.390;-99.256;2023-12-20T06:50:54;78026.75;;;20.77;33.66
20955;BME280;10636;19.390;-99.256;2023-12-20T06:53:23;78033.50;;;20.78;33.94
20955;BME280;10636;19.390;-99.256;2023-12-20T06:55:50;78034.19;;;20.79;33.68
20955;BME280;10636;19.390;-99.256;2023-12-20T06:58:19;78029.53;;;20.79;33.77
20955;BME280;10636;19.390;-99.256;2023-12-20T07:00:48;78034.06;;;20.77;34.24
20955;BME280;10636;19.390;-99.256;2023-12-20T07:03:17;78032.69;;;20.76;33.98
20955;BME280;10636;19.390;-99.256;2023-12-20T07:05:47;78030.00;;;20.76;33.62
20955;BME280;10636;19.390;-99.256;2023-12-20T07:08:16;78024.69;;;20.76;33.89
20955;BME280;10636;19.390;-99.256;2023-12-20T07:10:45;78021.94;;;20.74;33.94
20955;BME280;10636;19.390;-99.256;2023-12-20T07:13:14;78027.25;;;20.74;34.12
20955;BME280;10636;19.390;-99.256;2023-12-20T07:15:43;78031.22;;;20.73;33.79
20955;BME280;10636;19.390;-99.256;2023-12-20T07:18:12;78024.47;;;20.72;33.50
20955;BME280;10636;19.390;-99.256;2023-12-20T07:20:40;78019.03;;;20.70;33.95
20955;BME280;10636;19.390;-99.256;2023-12-20T07:23:11;78014.31;;;20.68;34.26
20955;BME280;10636;19.390;-99.256;2023-12-20T07:25:39;78009.69;;;20.69;34.13
20955;BME280;10636;19.390;-99.256;2023-12-20T07:28:08;78010.97;;;20.68;34.35
20955;BME280;10636;19.390;-99.256;2023-12-20T07:30:37;78010.84;;;20.66;33.78
20955;BME280;10636;19.390;-99.256;2023-12-20T07:33:06;78009.47;;;20.65;34.13
20955;BME280;10636;19.390;-99.256;2023-12-20T07:35:36;78002.06;;;20.63;34.09
20955;BME280;10636;19.390;-99.256;2023-12-20T07:38:04;78001.94;;;20.61;34.28
20955;BME280;10636;19.390;-99.256;2023-12-20T07:40:35;78000.56;;;20.60;33.98
20955;BME280;10636;19.390;-99.256;2023-12-20T07:43:04;78001.84;;;20.59;33.77
20955;BME280;10636;19.390;-99.256;2023-12-20T07:45:32;77999.78;;;20.57;34.11
20955;BME280;10636;19.390;-99.256;2023-12-20T07:48:01;78003.81;;;20.58;33.97
20955;BME280;10636;19.390;-99.256;2023-12-20T07:50:30;78001.06;;;20.56;34.04
20955;BME280;10636;19.390;-99.256;2023-12-20T07:52:59;77995.59;;;20.54;33.74
20955;BME280;10636;19.390;-99.256;2023-12-20T07:55:28;78005.56;;;20.54;33.94
20955;BME280;10636;19.390;-99.256;2023-12-20T07:57:58;78007.66;;;20.55;34.23
20955;BME280;10636;19.390;-99.256;2023-12-20T08:00:27;78010.91;;;20.54;34.07
20955;BME280;10636;19.390;-99.256;2023-12-20T08:02:59;78008.84;;;20.52;34.14
20955;BME280;10636;19.390;-99.256;2023-12-20T08:05:29;78003.50;;;20.52;33.90
20955;BME280;10636;19.390;-99.256;2023-12-20T08:07:58;77998.88;;;20.53;34.03
20955;BME280;10636;19.390;-99.256;2023-12-20T08:10:27;77998.06;;;20.50;33.84
20955;BME280;10636;19.390;-99.256;2023-12-20T08:12:58;78003.38;;;20.50;33.98
20955;BME280;10636;19.390;-99.256;2023-12-20T08:15:27;77994.00;;;20.49;34.18
20955;BME280;10636;19.390;-99.256;2023-12-20T08:17:55;77984.63;;;20.48;34.28
20955;BME280;10636;19.390;-99.256;2023-12-20T08:20:24;77984.56;;;20.46;34.06
20955;BME280;10636;19.390;-99.256;2023-12-20T08:22:53;77979.22;;;20.46;34.14
20955;BME280;10636;19.390;-99.256;2023-12-20T08:25:21;77976.41;;;20.44;34.14
20955;BME280;10636;19.390;-99.256;2023-12-20T08:27:50;77972.47;;;20.45;34.54
20955;BME280;10636;19.390;-99.256;2023-12-20T08:30:21;77971.78;;;20.45;33.91
20955;BME280;10636;19.390;-99.256;2023-12-20T08:32:49;77971.09;;;20.44;33.95
20955;BME280;10636;19.390;-99.256;2023-12-20T08:35:18;77973.75;;;20.44;34.13
20955;BME280;10636;19.390;-99.256;2023-12-20T08:37:47;77962.88;;;20.40;34.19
20955;BME280;10636;19.390;-99.256;2023-12-20T08:40:16;77968.19;;;20.40;34.25
20955;BME280;10636;19.390;-99.256;2023-12-20T08:42:45;77960.94;;;20.41;34.14
20955;BME280;10636;19.390;-99.256;2023-12-20T08:45:13;77966.94;;;20.41;34.27
20955;BME280;10636;19.390;-99.256;2023-12-20T08:47:44;77964.16;;;20.39;34.39
20955;BME280;10636;19.390;-99.256;2023-12-20T08:50:13;77966.72;;;20.37;34.55
20955;BME280;10636;19.390;-99.256;2023-12-20T08:52:41;77960.72;;;20.36;34.31
20955;BME280;10636;19.390;-99.256;2023-12-20T08:55:10;77963.94;;;20.35;34.66
20955;BME280;10636;19.390;-99.256;2023-12-20T08:57:39;77963.25;;;20.34;34.27
20955;BME280;10636;19.390;-99.256;2023-12-20T09:00:09;77967.19;;;20.33;34.49
20955;BME280;10636;19.390;-99.256;2023-12-20T09:02:37;77959.91;;;20.34;34.43
20955;BME280;10636;19.390;-99.256;2023-12-20T09:05:08;77957.25;;;20.34;34.57
20955;BME280;10636;19.390;-99.256;2023-12-20T09:07:37;77949.25;;;20.34;34.47
20955;BME280;10636;19.390;-99.256;2023-12-20T09:10:06;77950.53;;;20.33;34.29
20955;BME280;10636;19.390;-99.256;2023-12-20T09:12:35;77956.44;;;20.31;34.64
20955;BME280;10636;19.390;-99.256;2023-12-20T09:15:07;77949.03;;;20.30;34.50
20955;BME280;10636;19.390;-99.256;2023-12-20T09:17:35;77950.31;;;20.29;34.62
20955;BME280;10636;19.390;-99.256;2023-12-20T09:20:05;77942.22;;;20.27;34.70
20955;BME280;10636;19.390;-99.256;2023-12-20T09:22:36;77943.41;;;20.24;34.41
20955;BME280;10636;19.390;-99.256;2023-12-20T09:25:06;77950.13;;;20.25;34.40
20955;BME280;10636;19.390;-99.256;2023-12-20T09:27:35;77946.06;;;20.24;34.64
20955;BME280;10636;19.390;-99.256;2023-12-20T09:30:04;77941.31;;;20.22;34.59
20955;BME280;10636;19.390;-99.256;2023-12-20T09:32:33;77940.63;;;20.22;34.66
20955;BME280;10636;19.390;-99.256;2023-12-20T09:35:02;77942.00;;;20.23;34.45
20955;BME280;10636;19.390;-99.256;2023-12-20T09:37:32;77940.72;;;20.24;34.70
20955;BME280;10636;19.390;-99.256;2023-12-20T09:40:02;77933.25;;;20.20;34.33
20955;BME280;10636;19.390;-99.256;2023-12-20T09:42:38;77938.44;;;20.18;34.22
20955;BME280;10636;19.390;-99.256;2023-12-20T09:45:09;77940.41;;;20.18;34.67
20955;BME280;10636;19.390;-99.256;2023-12-20T09:47:38;77939.03;;;20.17;34.75
20955;BME280;10636;19.390;-99.256;2023-12-20T09:50:07;77952.94;;;20.15;34.64
20955;BME280;10636;19.390;-99.256;2023-12-20T09:52:36;77949.69;;;20.17;34.54
20955;BME280;10636;19.390;-99.256;2023-12-20T09:55:09;77946.94;;;20.15;34.59
20955;BME280;10636;19.390;-99.256;2023-12-20T09:57:38;77948.78;;;20.12;34.45
20955;BME280;10636;19.390;-99.256;2023-12-20T10:00:09;77954.00;;;20.10;34.71
20955;BME280;10636;19.390;-99.256;2023-12-20T10:02:39;77949.38;;;20.10;34.31
20955;BME280;10636;19.390;-99.256;2023-12-20T10:05:15;77955.38;;;20.11;34.88
20955;BME280;10636;19.390;-99.256;2023-12-20T10:07:46;77956.09;;;20.11;34.42
20955;BME280;10636;19.390;-99.256;2023-12-20T10:10:16;77962.69;;;20.10;34.42
20955;BME280;10636;19.390;-99.256;2023-12-20T10:13:02;77962.00;;;20.10;34.44
20955;BME280;10636;19.390;-99.256;2023-12-20T10:15:31;77961.31;;;20.09;34.43
20955;BME280;10636;19.390;-99.256;2023-12-20T10:18:00;77966.50;;;20.07;34.66
20955;BME280;10636;19.390;-99.256;2023-12-20T10:20:29;77967.78;;;20.06;34.79
20955;BME280;10636;19.390;-99.256;2023-12-20T10:22:59;77967.09;;;20.06;34.60
20955;BME280;10636;19.390;-99.256;2023-12-20T10:25:29;77967.69;;;20.04;34.50
20955;BME280;10636;19.390;-99.256;2023-12-20T10:28:12;77966.88;;;20.02;34.52
20955;BME280;10636;19.390;-99.256;2023-12-20T10:30:41;77963.53;;;20.01;34.41
20955;BME280;10636;19.390;-99.256;2023-12-20T10:33:10;77976.84;;;20.01;34.72
20955;BME280;10636;19.390;-99.256;2023-12-20T10:35:39;77964.81;;;20.00;34.45
20955;BME280;10636;19.390;-99.256;2023-12-20T10:38:08;77965.41;;;19.99;34.20
20955;BME280;10636;19.390;-99.256;2023-12-20T10:40:39;77968.06;;;19.99;34.38
20955;BME280;10636;19.390;-99.256;2023-12-20T10:43:09;77968.53;;;19.95;34.81
20955;BME280;10636;19.390;-99.256;2023-12-20T10:45:38;77968.53;;;19.95;34.25
20955;BME280;10636;19.390;-99.256;2023-12-20T10:48:07;77977.81;;;19.94;34.51
20955;BME280;10636;19.390;-99.256;2023-12-20T10:50:39;77968.44;;;19.93;34.37
20955;BME280;10636;19.390;-99.256;2023-12-20T10:53:09;77976.44;;;19.93;34.31
20955;BME280;10636;19.390;-99.256;2023-12-20T10:55:40;77972.94;;;19.91;34.61
20955;BME280;10636;19.390;-99.256;2023-12-20T10:58:11;77977.59;;;19.90;34.44
20955;BME280;10636;19.390;-99.256;2023-12-20T11:00:41;77972.25;;;19.90;34.50
20955;BME280;10636;19.390;-99.256;2023-12-20T11:03:12;77968.91;;;19.90;34.66
20955;BME280;10636;19.390;-99.256;2023-12-20T11:05:46;77969.50;;;19.88;34.49
20955;BME280;10636;19.390;-99.256;2023-12-20T11:08:22;77964.75;;;19.87;34.54
20955;BME280;10636;19.390;-99.256;2023-12-20T11:10:59;77967.41;;;19.87;34.41
20955;BME280;10636;19.390;-99.256;2023-12-20T11:13:34;77969.97;;;19.84;34.73
20955;BME280;10636;19.390;-99.256;2023-12-20T11:16:05;77968.59;;;19.83;34.71
20955;BME280;10636;19.390;-99.256;2023-12-20T11:18:34;77970.56;;;19.83;34.38
20955;BME280;10636;19.390;-99.256;2023-12-20T11:21:04;77973.78;;;19.81;34.52
20955;BME280;10636;19.390;-99.256;2023-12-20T11:23:33;77987.09;;;19.81;34.47
20955;BME280;10636;19.390;-99.256;2023-12-20T11:26:04;77973.00;;;19.79;34.66
20955;BME280;10636;19.390;-99.256;2023-12-20T11:28:33;77983.66;;;19.79;34.53
20955;BME280;10636;19.390;-99.256;2023-12-20T11:31:02;77986.19;;;19.77;34.67
20955;BME280;10636;19.390;-99.256;2023-12-20T11:33:32;77976.94;;;19.78;34.53
20955;BME280;10636;19.390;-99.256;2023-12-20T11:36:14;77979.47;;;19.76;34.48
20955;BME280;10636;19.390;-99.256;2023-12-20T11:38:54;77988.75;;;19.75;34.74
20955;BME280;10636;19.390;-99.256;2023-12-20T11:41:26;77986.09;;;19.75;34.39
20955;BME280;10636;19.390;-99.256;2023-12-20T11:43:55;77984.69;;;19.74;34.72
20955;BME280;10636;19.390;-99.256;2023-12-20T11:46:24;77981.34;;;19.73;34.75
20955;BME280;10636;19.390;-99.256;2023-12-20T11:48:55;77986.66;;;19.73;34.65
20955;BME280;10636;19.390;-99.256;2023-12-20T11:51:23;77986.66;;;19.73;34.71
20955;BME280;10636;19.390;-99.256;2023-12-20T11:53:52;77993.16;;;19.70;34.64
20955;BME280;10636;19.390;-99.256;2023-12-20T11:56:21;77987.25;;;19.72;34.76
20955;BME280;10636;19.390;-99.256;2023-12-20T11:58:52;77996.50;;;19.71;34.76
20955;BME280;10636;19.390;-99.256;2023-12-20T12:01:20;77997.78;;;19.70;34.70
20955;BME280;10636;19.390;-99.256;2023-12-20T12:04:02;77996.41;;;19.69;34.99
20955;BME280;10636;19.390;-99.256;2023-12-20T12:06:31;78006.34;;;19.68;34.83
20955;BME280;10636;19.390;-99.256;2023-12-20T12:09:00;78012.38;;;19.69;34.92
20955;BME280;10636;19.390;-99.256;2023-12-20T12:11:30;78013.66;;;19.68;34.78
20955;BME280;10636;19.390;-99.256;2023-12-20T12:14:01;78010.28;;;19.67;35.00
20955;BME280;10636;19.390;-99.256;2023-12-20T12:16:29;78021.63;;;19.68;34.52
20955;BME280;10636;19.390;-99.256;2023-12-20T12:18:59;78028.19;;;19.67;34.99
20955;BME280;10636;19.390;-99.256;2023-12-20T12:21:27;78030.88;;;19.67;34.91
20955;BME280;10636;19.390;-99.256;2023-12-20T12:24:07;78038.16;;;19.66;35.01
20955;BME280;10636;19.390;-99.256;2023-12-20T12:26:36;78028.09;;;19.65;34.91
20955;BME280;10636;19.390;-99.256;2023-12-20T12:29:07;78033.41;;;19.65;34.99
20955;BME280;10636;19.390;-99.256;2023-12-20T12:31:36;78048.69;;;19.64;34.81
20955;BME280;10636;19.390;-99.256;2023-12-20T12:34:05;78050.66;;;19.64;34.41
20955;BME280;10636;19.390;-99.256;2023-12-20T12:36:35;78045.25;;;19.62;35.19
20955;BME280;10636;19.390;-99.256;2023-12-20T12:39:04;78040.59;;;19.62;34.75
20955;BME280;10636;19.390;-99.256;2023-12-20T12:41:33;78045.81;;;19.60;34.76
20955;BME280;10636;19.390;-99.256;2023-12-20T12:44:02;78044.53;;;19.61;34.82
20955;BME280;10636;19.390;-99.256;2023-12-20T12:46:33;78042.31;;;19.57;35.10
20955;BME280;10636;19.390;-99.256;2023-12-20T12:49:02;78055.75;;;19.59;34.98
20955;BME280;10636;19.390;-99.256;2023-12-20T12:51:30;78057.00;;;19.58;35.01
20955;BME280;10636;19.390;-99.256;2023-12-20T12:53:59;78046.81;;;19.55;35.22